Time;durP1;ratioP1;P1;durP2;ratioP2;P2;SDS_P1;SDS_P2;PMS_P1;PMS_P2;Temp;Humidity;BMP_temperature;BMP_pressure;BME280_temperature;BME280_humidity;BME280_pressure;Samples;Min_cycle;Max_cycle;Signal;HPM_P1;HPM_P2
2023/08/08 00:01:57;;;;;;;5.07;2.92;;;13.20;99.90;;;-141.84;74.97;20256.91;5063528;28;20320;-62
2023/08/08 00:04:25;;;;;;;5.07;2.63;;;13.30;99.90;;;-141.84;74.96;20230.50;5056520;28;20232;-61
2023/08/08 00:06:53;;;;;;;4.95;2.38;;;13.30;99.90;;;-141.84;74.36;20250.81;5063705;28;20942;-61
2023/08/08 00:09:22;;;;;;;3.95;2.45;;;13.20;99.90;;;-141.84;74.66;20232.53;5063613;28;20319;-61
2023/08/08 00:11:50;;;;;;;4.90;2.77;;;13.20;99.90;;;-141.84;74.52;20228.47;5063693;28;20398;-62
2023/08/08 00:14:19;;;;;;;6.65;2.63;;;13.20;99.90;;;-141.84;73.73;20267.09;5055596;28;20802;-62
2023/08/08 00:16:47;;;;;;;3.35;2.78;;;13.30;99.90;;;-141.84;74.21;20260.97;5062934;28;20319;-62
2023/08/08 00:19:16;;;;;;;4.40;2.60;;;13.30;99.90;;;-141.84;73.99;20260.97;5063243;28;20277;-63
2023/08/08 00:21:44;;;;;;;4.20;2.30;;;13.20;99.90;;;-141.84;73.59;20246.75;5063208;28;20625;-61
2023/08/08 00:24:12;;;;;;;5.50;2.53;;;13.30;99.90;;;-141.84;73.36;20301.63;5063627;28;20704;-61
2023/08/08 00:26:40;;;;;;;4.05;2.75;;;13.30;99.90;;;-141.84;74.00;20214.22;5040160;28;20720;-62
2023/08/08 00:29:08;;;;;;;4.33;2.37;;;13.20;99.90;;;-141.84;75.08;20214.22;5060555;28;20228;-65
2023/08/08 00:31:38;;;;;;;7.30;2.53;;;13.20;99.90;;;-141.84;75.54;20222.38;5062512;28;20248;-64
2023/08/08 00:34:06;;;;;;;4.83;2.77;;;13.10;99.90;;;-141.84;75.72;20193.91;5062966;28;20215;-65
2023/08/08 00:36:34;;;;;;;3.33;2.42;;;13.00;99.90;;;-141.84;75.12;20222.38;5055699;28;20547;-66
2023/08/08 00:39:03;;;;;;;3.30;2.67;;;13.00;99.90;;;-141.84;75.88;20183.75;5063092;28;20236;-65
2023/08/08 00:41:31;;;;;;;4.33;2.53;;;13.00;99.90;;;-141.84;75.86;20177.66;5062783;28;20788;-64
2023/08/08 00:43:59;;;;;;;5.40;2.60;;;12.90;99.90;;;-141.84;76.12;20173.59;5062834;28;20274;-65
2023/08/08 00:46:28;;;;;;;4.10;2.70;;;12.90;99.90;;;-141.84;75.82;20191.88;5055155;28;20307;-65
2023/08/08 00:48:57;;;;;;;3.77;2.50;;;12.90;99.90;;;-141.84;76.33;20147.16;5063564;28;20262;-66
2023/08/08 00:51:26;;;;;;;4.20;2.53;;;12.90;99.90;;;-141.84;74.78;20210.16;5062260;28;20294;-65
2023/08/08 00:53:56;;;;;;;7.20;2.43;;;12.90;99.90;;;-141.84;75.93;20169.53;5063289;28;20240;-65
2023/08/08 00:56:25;;;;;;;5.90;2.50;;;12.80;99.90;;;-141.84;76.23;20161.38;5054695;28;20747;-64
2023/08/08 00:58:54;;;;;;;4.13;3.00;;;12.80;99.90;;;-141.84;76.53;20171.56;5062573;28;20251;-65
2023/08/08 01:01:22;;;;;;;5.30;2.73;;;12.70;99.90;;;-141.84;76.17;20163.41;5062619;28;20228;-65
2023/08/08 01:03:52;;;;;;;6.07;2.80;;;12.70;99.90;;;-141.84;76.42;20159.34;5062931;28;20640;-65
2023/08/08 01:06:32;;;;;;;4.13;2.60;;;12.70;99.90;;;-141.84;76.21;20159.34;5054254;28;20220;-65
2023/08/08 01:09:09;;;;;;;4.53;2.53;;;12.70;99.90;;;-141.84;75.40;20181.72;5063099;28;20638;-65
2023/08/08 01:11:38;;;;;;;2.43;2.23;;;12.80;99.90;;;-141.84;75.98;20153.25;5062738;28;20255;-64
2023/08/08 01:14:10;;;;;;;4.47;2.40;;;12.70;99.90;;;-141.84;75.57;20167.47;5062673;28;20256;-64
2023/08/08 01:16:39;;;;;;;4.40;2.60;;;12.70;99.90;;;-141.84;76.29;20128.88;5054381;28;20248;-65
2023/08/08 01:19:12;;;;;;;4.37;2.33;;;12.70;99.90;;;-141.84;75.90;20155.28;5061804;28;20227;-65
2023/08/08 01:21:46;;;;;;;4.70;2.63;;;12.70;99.90;;;-141.84;75.75;20191.88;5063104;28;20250;-64
2023/08/08 01:24:21;;;;;;;5.07;2.40;;;12.70;99.90;;;-141.84;75.84;20197.97;5062881;28;20722;-65
2023/08/08 01:26:50;;;;;;;4.03;2.30;;;12.60;99.90;;;-141.84;75.40;20183.75;5044744;28;20233;-64
2023/08/08 01:29:18;;;;;;;3.83;2.50;;;12.70;99.90;;;-141.84;75.82;20153.25;5061295;28;20664;-65
2023/08/08 01:31:47;;;;;;;3.97;2.70;;;12.60;99.90;;;-141.84;74.62;20167.47;5062256;28;20251;-65
2023/08/08 01:34:15;;;;;;;3.53;2.20;;;12.70;99.90;;;-141.84;75.49;20153.25;5061128;28;20664;-64
2023/08/08 01:36:50;;;;;;;5.67;2.90;;;12.70;99.90;;;-141.84;75.77;20149.19;5062997;28;20252;-64
2023/08/08 01:39:26;;;;;;;5.53;2.70;;;12.70;99.90;;;-141.84;75.46;20153.25;5062834;28;20228;-65
2023/08/08 01:41:57;;;;;;;5.73;2.70;;;12.60;99.90;;;-141.84;74.90;20159.34;5062569;28;20224;-64
2023/08/08 01:44:28;;;;;;;4.00;2.40;;;;;;;-141.84;74.32;20165.44;5055214;28;20243;-64
2023/08/08 01:46:56;;;;;;;4.23;2.83;;;12.70;99.90;;;-141.84;75.40;20149.19;5062418;28;20224;-64
2023/08/08 01:49:24;;;;;;;3.57;2.43;;;12.70;99.90;;;-141.84;75.56;20165.44;5061413;28;20228;-64
2023/08/08 01:51:53;;;;;;;3.63;2.53;;;12.60;99.90;;;-141.84;76.21;20118.69;5062745;28;20220;-64
2023/08/08 01:54:22;;;;;;;4.50;2.27;;;12.50;99.90;;;-141.84;76.57;20122.78;5055325;28;20745;-65
2023/08/08 01:56:51;;;;;;;5.47;2.60;;;12.50;99.90;;;-141.84;76.21;20106.50;5044404;28;20323;-64
2023/08/08 01:59:20;;;;;;;4.47;2.33;;;12.50;99.90;;;-141.84;75.15;20134.97;5055656;28;20653;-65
2023/08/08 02:01:48;;;;;;;3.37;2.47;;;12.50;99.90;;;-141.84;74.98;20175.63;5062315;28;20273;-65
2023/08/08 02:04:16;;;;;;;3.13;2.30;;;12.50;99.90;;;-141.84;74.98;20171.56;5059652;28;20205;-65
2023/08/08 02:06:44;;;;;;;3.83;2.50;;;12.30;99.90;;;-141.84;75.31;20165.44;5060853;28;20212;-65
2023/08/08 02:09:14;;;;;;;3.83;2.10;;;12.50;99.90;;;-141.84;75.06;20147.16;5062309;28;20221;-65
2023/08/08 02:11:44;;;;;;;3.30;2.57;;;12.50;99.90;;;-141.84;75.17;20153.25;5064112;28;20236;-65
2023/08/08 02:14:12;;;;;;;6.88;2.95;;;12.50;99.90;;;-141.84;74.96;20145.13;5065627;28;20288;-66
2023/08/08 02:16:42;;;;;;;5.23;2.60;;;12.50;99.90;;;-141.84;76.00;20139.03;5058574;28;20255;-65
2023/08/08 02:19:10;;;;;;;3.67;2.90;;;12.50;99.90;;;-141.84;74.28;20155.28;5064884;28;20224;-64
2023/08/08 02:21:38;;;;;;;5.87;2.30;;;12.50;99.90;;;-141.84;74.73;20151.22;5065903;28;20466;-64
2023/08/08 02:24:07;;;;;;;3.00;2.20;;;12.50;99.90;;;-141.84;75.26;20124.81;5065784;28;20232;-65
2023/08/08 02:26:35;;;;;;;4.27;2.13;;;12.50;99.90;;;-141.84;76.37;20110.56;5057532;28;20697;-65
2023/08/08 02:29:04;;;;;;;3.03;2.20;;;12.50;99.90;;;-141.84;75.95;20122.78;5065601;28;20264;-65
2023/08/08 02:31:32;;;;;;;5.40;2.50;;;12.50;99.90;;;-141.84;75.86;20118.69;5065306;28;20286;-64
2023/08/08 02:34:01;;;;;;;3.47;2.10;;;12.40;99.90;;;-141.84;75.43;20104.47;5065209;28;20288;-64
2023/08/08 02:36:29;;;;;;;5.03;2.63;;;12.40;99.90;;;-141.84;76.03;20134.97;5058253;28;20266;-64
2023/08/08 02:38:57;;;;;;;4.00;2.40;;;12.40;99.90;;;-141.84;73.64;20202.03;5065651;28;20256;-64
2023/08/08 02:41:25;;;;;;;4.80;2.13;;;12.50;99.90;;;-141.84;74.18;20151.22;5065236;28;20716;-65
2023/08/08 02:43:53;;;;;;;4.20;2.60;;;12.60;99.90;;;-141.84;74.88;20145.13;5065514;28;20275;-64
2023/08/08 02:46:23;;;;;;;3.37;2.13;;;12.50;99.90;;;-141.84;74.23;20143.09;5057736;28;20232;-64
2023/08/08 02:48:51;;;;;;;3.87;2.20;;;12.60;99.90;;;-141.84;74.47;20137.00;5065019;28;20204;-65
2023/08/08 02:51:19;;;;;;;3.07;2.03;;;12.50;99.90;;;-141.84;75.17;20130.91;5065135;28;20306;-64
2023/08/08 02:53:48;;;;;;;2.97;2.43;;;12.50;99.90;;;-141.84;76.03;20118.69;5065381;28;20323;-65
2023/08/08 02:56:16;;;;;;;5.03;2.43;;;12.50;99.90;;;-141.84;76.61;20137.00;5063104;28;20664;-64
2023/08/08 02:58:44;;;;;;;2.77;2.30;;;12.40;99.90;;;-141.84;75.08;20163.41;5061285;28;20814;-65
2023/08/08 03:01:13;;;;;;;5.63;2.90;;;12.50;99.90;;;-141.84;75.15;20116.66;5065170;28;20754;-66
2023/08/08 03:03:43;;;;;;;9.20;2.43;;;12.50;99.90;;;-141.84;75.72;20110.56;5064834;28;20255;-65
2023/08/08 03:06:11;;;;;;;5.60;2.13;;;12.40;99.90;;;-141.84;74.84;20157.31;5063120;28;20275;-65
2023/08/08 03:08:39;;;;;;;3.40;2.30;;;12.50;99.90;;;-141.84;74.64;20171.56;5057403;28;22154;-65
2023/08/08 03:11:07;;;;;;;3.23;2.23;;;12.50;99.90;;;-141.84;74.71;20181.72;5065191;28;20232;-64
2023/08/08 03:13:37;;;;;;;3.73;2.10;;;12.60;99.90;;;-141.84;74.71;20171.56;5064972;28;20311;-64
2023/08/08 03:16:05;;;;;;;3.30;2.60;;;12.60;99.90;;;-141.84;74.46;20145.13;5061465;28;20630;-65
2023/08/08 03:18:33;;;;;;;3.30;2.10;;;12.60;99.90;;;-141.84;74.33;20179.69;5045839;28;20209;-64
2023/08/08 03:21:03;;;;;;;4.07;2.30;;;12.60;99.90;;;-141.84;74.75;20157.31;5044449;28;20717;-65
2023/08/08 03:23:32;;;;;;;4.60;2.30;;;12.60;99.90;;;-141.84;74.82;20145.13;5064023;28;20236;-64
2023/08/08 03:26:00;;;;;;;3.37;2.60;;;12.60;99.90;;;-141.84;75.08;20145.13;5053562;28;20312;-65
2023/08/08 03:28:28;;;;;;;2.70;2.10;;;12.60;99.90;;;-141.84;74.81;20179.69;5048660;28;20220;-65
2023/08/08 03:30:57;;;;;;;3.17;2.70;;;12.60;99.90;;;-141.84;74.33;20181.72;5064361;28;20867;-64
2023/08/08 03:33:25;;;;;;;3.17;2.60;;;12.60;99.90;;;-141.84;75.59;20145.13;5063658;28;20881;-64
2023/08/08 03:35:53;;;;;;;3.13;2.20;;;12.60;99.90;;;-141.84;74.71;20206.09;5064252;28;20720;-66
2023/08/08 03:38:23;;;;;;;2.80;2.50;;;12.60;99.90;;;-141.84;74.70;20181.72;5055409;28;20232;-65
2023/08/08 03:40:52;;;;;;;4.27;2.50;;;12.70;99.90;;;-141.84;73.85;20208.13;5064077;28;20731;-65
2023/08/08 03:43:20;;;;;;;3.40;2.30;;;12.70;99.90;;;-141.84;73.84;20216.25;5064598;28;20235;-66
2023/08/08 03:45:48;;;;;;;4.20;2.40;;;12.70;99.90;;;-141.84;74.03;20181.72;5064740;28;20250;-65
2023/08/08 03:48:17;;;;;;;4.23;2.53;;;12.70;99.90;;;-141.84;74.81;20163.41;5060077;28;20739;-62
2023/08/08 03:50:46;;;;;;;3.23;2.50;;;12.70;99.90;;;-141.84;74.78;20175.63;5062109;28;20244;-64
2023/08/08 03:53:14;;;;;;;4.03;2.40;;;12.60;99.90;;;-141.84;73.94;20197.97;5064143;28;20369;-64
2023/08/08 03:55:43;;;;;;;3.93;2.40;;;12.70;99.90;;;-141.84;73.99;20171.56;5055808;28;20299;-64
2023/08/08 03:58:12;;;;;;;2.83;2.23;;;12.80;99.90;;;-141.84;74.80;20167.47;5048063;28;20205;-64
2023/08/08 04:00:45;;;;;;;5.37;2.50;;;12.70;99.90;;;-141.84;73.73;20204.06;5056813;28;20319;-65
2023/08/08 04:03:15;;;;;;;3.33;2.50;;;12.70;99.90;;;-141.84;74.63;20208.13;5063467;28;20242;-65
2023/08/08 04:05:47;;;;;;;3.20;2.80;;;12.70;99.90;;;-141.84;74.08;20200.00;5063641;28;20225;-65
2023/08/08 04:08:16;;;;;;;4.07;3.30;;;12.80;99.90;;;-141.84;75.19;20195.94;5063514;28;20797;-65
2023/08/08 04:10:48;;;;;;;2.97;2.50;;;12.70;99.90;;;-141.84;73.05;20248.78;5061104;28;20648;-66
2023/08/08 04:13:16;;;;;;;3.93;2.40;;;13.00;99.90;;;-141.84;72.96;20228.47;5063891;28;20208;-64
2023/08/08 04:15:45;;;;;;;3.60;2.38;;;13.10;99.90;;;-141.84;73.41;20256.91;5063991;28;20251;-64
2023/08/08 04:18:13;;;;;;;3.75;2.60;;;13.20;99.90;;;-141.84;73.15;20242.69;5062956;28;20301;-65
2023/08/08 04:20:41;;;;;;;4.20;3.70;;;13.30;99.90;;;-141.84;72.39;20277.25;5058343;28;20236;-65
2023/08/08 04:23:09;;;;;;;4.38;2.67;;;13.30;99.90;;;-141.84;71.96;20313.84;5063230;28;20232;-65
2023/08/08 04:25:39;;;;;;;2.33;2.13;;;13.40;99.90;;;-141.84;71.29;20338.22;5055384;28;20225;-65
2023/08/08 04:28:09;;;;;;;2.65;1.95;;;13.50;99.90;;;-141.84;70.71;20346.34;5052680;28;20284;-64
2023/08/08 04:30:37;;;;;;;3.70;2.50;;;13.60;99.90;;;-141.84;70.13;20352.44;5055834;28;20994;-64
2023/08/08 04:33:06;;;;;;;3.00;2.40;;;13.70;99.90;;;-141.84;69.79;20372.78;5062280;28;20604;-65
2023/08/08 04:35:34;;;;;;;3.88;2.20;;;13.70;99.90;;;-141.84;69.90;20362.63;5062683;28;20404;-65
2023/08/08 04:38:02;;;;;;;3.22;2.30;;;13.70;99.90;;;-141.84;69.99;20340.25;5063251;28;20307;-65
2023/08/08 04:40:30;;;;;;;4.55;2.20;;;13.80;99.90;;;-141.84;70.59;20374.81;5055657;28;20335;-65
2023/08/08 04:42:59;;;;;;;2.90;2.03;;;13.80;99.90;;;-141.84;71.02;20328.06;5063471;28;20204;-65
2023/08/08 04:45:29;;;;;;;2.30;2.10;;;13.80;99.90;;;-141.84;70.71;20338.22;5063773;28;20228;-64
2023/08/08 04:47:57;;;;;;;3.20;2.17;;;13.80;99.90;;;-141.84;70.32;20389.03;5062817;28;20229;-65
2023/08/08 04:50:26;;;;;;;2.85;2.40;;;13.80;99.90;;;-141.84;70.02;20370.75;5055115;28;20236;-65
2023/08/08 04:52:54;;;;;;;4.40;2.15;;;13.80;99.90;;;-141.84;69.20;20417.50;5053855;28;20699;-65
2023/08/08 04:55:22;;;;;;;4.40;2.42;;;13.90;99.90;;;-141.84;69.28;20399.19;5048497;28;20232;-65
2023/08/08 04:57:50;;;;;;;6.30;2.33;;;13.90;99.90;;;-141.84;70.54;20350.41;5063211;28;20212;-65
2023/08/08 05:00:19;;;;;;;2.08;1.90;;;13.90;99.90;;;-141.84;70.54;20364.66;5055260;28;20260;-64
2023/08/08 05:02:49;;;;;;;2.67;2.10;;;13.90;99.90;;;-141.84;71.01;20332.13;5062321;28;20237;-65
2023/08/08 05:05:17;;;;;;;2.47;2.20;;;13.80;99.90;;;-141.84;69.92;20409.38;5062547;28;20232;-64
2023/08/08 05:07:45;;;;;;;2.72;2.13;;;13.80;99.90;;;-141.84;70.34;20370.75;5062931;28;20297;-65
2023/08/08 05:10:13;;;;;;;3.40;2.28;;;13.80;99.90;;;-141.84;71.49;20338.22;5062384;28;20287;-64
2023/08/08 05:12:42;;;;;;;4.70;2.40;;;13.90;99.90;;;-141.84;70.20;20358.56;5062711;28;20205;-65
2023/08/08 05:15:11;;;;;;;3.28;2.30;;;13.80;99.90;;;-141.84;69.90;20362.63;5062662;28;20232;-65
2023/08/08 05:17:39;;;;;;;3.25;2.55;;;13.90;99.90;;;-141.84;69.65;20415.47;5062126;28;20312;-65
2023/08/08 05:20:11;;;;;;;2.55;1.90;;;14.00;99.90;;;-141.84;69.53;20435.78;5062596;28;20224;-65
2023/08/08 05:22:40;;;;;;;2.85;2.30;;;14.00;99.90;;;-141.84;70.23;20395.13;5055070;28;20614;-64
2023/08/08 05:25:09;;;;;;;2.75;2.17;;;14.00;99.90;;;-141.84;68.73;20423.59;5061746;28;20228;-65
2023/08/08 05:27:37;;;;;;;3.38;1.88;;;14.10;99.90;;;-141.84;68.80;20411.41;5063293;28;20253;-65
2023/08/08 05:30:07;;;;;;;3.65;2.17;;;14.10;99.90;;;-141.84;67.61;20462.22;5059900;28;20600;-64
2023/08/08 05:32:36;;;;;;;3.63;2.10;;;14.10;99.90;;;-141.84;68.78;20407.34;5053737;28;20335;-65
2023/08/08 05:35:05;;;;;;;4.07;2.08;;;14.10;99.90;;;-141.84;68.31;20427.66;5063126;28;20513;-64
2023/08/08 05:37:35;;;;;;;2.95;2.00;;;14.20;99.90;;;-141.84;68.47;20435.78;5062084;28;20778;-65
2023/08/08 05:40:06;;;;;;;2.88;1.75;;;14.20;99.90;;;-141.84;67.80;20472.38;5062404;28;20233;-65
2023/08/08 05:42:34;;;;;;;3.33;1.95;;;14.20;99.90;;;-141.84;67.99;20425.63;5054696;28;20757;-65
2023/08/08 05:45:02;;;;;;;1.88;1.70;;;14.30;99.90;;;-141.84;68.29;20482.53;5062166;28;20255;-65
2023/08/08 05:47:30;;;;;;;3.15;1.90;;;14.20;99.90;;;-141.84;67.36;20496.78;5065236;28;20228;-64
2023/08/08 05:49:59;;;;;;;3.85;2.30;;;14.30;99.90;;;-141.84;67.83;20466.28;5066046;28;20247;-64
2023/08/08 05:52:27;;;;;;;2.60;2.00;;;14.20;99.90;;;-141.84;68.05;20447.97;5058195;28;20221;-65
2023/08/08 05:54:58;;;;;;;4.28;2.10;;;14.30;99.90;;;-141.84;68.66;20431.72;5065842;28;20270;-64
2023/08/08 05:57:27;;;;;;;2.97;1.90;;;14.20;99.90;;;-141.84;68.57;20437.81;5066219;28;20232;-65
2023/08/08 05:59:55;;;;;;;3.25;2.10;;;14.20;99.90;;;-141.84;67.72;20456.13;5066252;28;20319;-65
2023/08/08 06:02:23;;;;;;;2.28;1.75;;;14.20;99.90;;;-141.84;69.17;20441.88;5057935;28;20238;-64
2023/08/08 06:04:52;;;;;;;2.75;2.15;;;;;;;-141.84;68.22;20478.47;5065955;28;20708;-65
2023/08/08 06:07:21;;;;;;;1.73;1.58;;;14.30;99.90;;;-141.84;67.42;20452.06;5065592;28;20208;-65
2023/08/08 06:09:49;;;;;;;4.47;2.00;;;14.50;99.90;;;-141.84;66.90;20533.34;5066148;28;20208;-65
2023/08/08 06:12:19;;;;;;;4.15;1.92;;;14.60;99.90;;;-141.84;66.72;20551.66;5060279;28;20236;-67
2023/08/08 06:14:47;;;;;;;2.70;1.77;;;14.70;99.90;;;-141.84;65.91;20551.66;5065200;28;20797;-65
2023/08/08 06:17:15;;;;;;;1.60;1.48;;;14.80;99.90;;;-141.84;65.44;20596.38;5064682;28;20298;-65
2023/08/08 06:19:44;;;;;;;1.92;1.60;;;15.00;99.90;;;-141.84;65.70;20565.88;5065737;28;20278;-64
2023/08/08 06:22:12;;;;;;;3.05;1.60;;;14.90;99.90;;;-141.84;65.44;20637.03;5064974;28;20239;-65
2023/08/08 06:24:41;;;;;;;2.58;1.80;;;15.00;99.90;;;-141.84;64.29;20669.56;5055628;28;20201;-64
2023/08/08 06:27:09;;;;;;;2.53;1.60;;;15.10;99.90;;;-141.84;64.28;20677.69;5063353;28;20315;-66
2023/08/08 06:29:38;;;;;;;2.83;1.80;;;15.30;99.90;;;-141.84;64.15;20661.44;5065190;28;20259;-65
2023/08/08 06:32:08;;;;;;;2.67;1.80;;;15.30;99.90;;;-141.84;65.04;20635.00;5064189;28;20236;-64
2023/08/08 06:34:36;;;;;;;2.13;1.48;;;15.30;99.90;;;-141.84;65.87;20610.59;5057296;28;22518;-65
2023/08/08 06:37:04;;;;;;;2.15;1.50;;;15.30;99.90;;;-141.84;64.97;20667.53;5064861;28;20204;-64
2023/08/08 06:39:33;;;;;;;3.00;1.52;;;15.30;99.90;;;-141.84;64.13;20710.22;5065957;28;20275;-65
2023/08/08 06:42:02;;;;;;;1.90;1.70;;;15.50;99.90;;;-141.84;64.18;20742.75;5064823;28;20225;-65
2023/08/08 06:44:33;;;;;;;2.17;1.63;;;15.40;99.90;;;-141.84;64.50;20693.94;5057370;28;20286;-65
2023/08/08 06:47:03;;;;;;;1.85;1.50;;;15.40;99.90;;;-141.84;64.70;20700.03;5064218;28;20229;-65
2023/08/08 06:49:31;;;;;;;3.60;1.50;;;15.50;99.90;;;-141.84;64.01;20740.69;5065040;28;20229;-65
2023/08/08 06:52:00;;;;;;;5.13;1.80;;;15.60;99.90;;;-141.84;63.85;20742.75;5052119;28;20212;-66
2023/08/08 06:54:29;;;;;;;2.78;1.58;;;15.70;99.90;;;-141.84;63.48;20787.47;5040773;28;20727;-65
2023/08/08 06:56:57;;;;;;;2.88;1.58;;;15.90;99.90;;;-141.84;62.53;20868.78;5058948;28;20814;-65
2023/08/08 06:59:28;;;;;;;1.60;1.40;;;16.20;99.90;;;-141.84;61.28;20919.59;5047186;28;20237;-65
2023/08/08 07:01:57;;;;;;;1.55;1.45;;;16.40;99.90;;;-141.84;60.42;20968.38;5042958;28;20236;-65
2023/08/08 07:04:27;;;;;;;2.22;1.73;;;16.60;99.90;;;-141.84;59.98;21031.41;5036518;28;20241;-65
2023/08/08 07:06:55;;;;;;;4.10;1.70;;;16.90;99.90;;;-141.84;59.64;21070.03;5044485;28;20288;-65
2023/08/08 07:09:23;;;;;;;1.88;1.50;;;17.00;99.90;;;-141.84;59.57;21017.19;5044267;28;20712;-66
2023/08/08 07:11:51;;;;;;;2.00;1.50;;;17.10;99.90;;;-141.84;59.49;21086.31;5043869;28;20260;-64
2023/08/08 07:14:19;;;;;;;2.47;1.70;;;17.10;99.90;;;-141.84;60.23;21009.03;5036814;28;20758;-66
2023/08/08 07:16:48;;;;;;;3.90;1.70;;;17.00;99.90;;;-141.84;60.82;20941.97;5042949;28;20320;-65
2023/08/08 07:19:17;;;;;;;2.75;1.90;;;16.90;99.90;;;-141.84;62.21;20907.41;5044230;28;20235;-66
2023/08/08 07:21:46;;;;;;;1.77;1.55;;;16.70;99.90;;;-141.84;62.01;20876.91;5044651;28;20287;-65
2023/08/08 07:24:14;;;;;;;2.78;1.50;;;16.60;99.90;;;-141.84;62.36;20885.03;5044163;28;20229;-66
2023/08/08 07:26:43;;;;;;;2.00;1.63;;;16.30;99.90;;;-141.84;63.05;20858.59;5021929;28;20329;-65
2023/08/08 07:29:11;;;;;;;1.67;1.40;;;16.40;99.90;;;-141.84;63.39;20805.75;5041681;28;20292;-66
2023/08/08 07:31:39;;;;;;;3.95;1.67;;;16.30;99.90;;;-141.84;63.95;20765.09;5042749;28;20267;-66
2023/08/08 07:34:07;;;;;;;1.77;1.40;;;16.20;99.90;;;-141.84;64.76;20738.66;5043674;28;20209;-66
2023/08/08 07:36:36;;;;;;;2.10;1.30;;;16.00;99.90;;;-141.84;64.12;20801.69;5036398;28;20241;-65
2023/08/08 07:39:05;;;;;;;1.90;1.70;;;16.00;99.90;;;-141.84;64.94;20704.13;5043424;28;20225;-66
2023/08/08 07:41:34;;;;;;;2.00;1.60;;;15.80;99.90;;;-141.84;65.84;20704.13;5043292;28;20229;-66
2023/08/08 07:44:03;;;;;;;1.70;1.60;;;15.70;99.90;;;-141.84;66.00;20677.69;5043778;28;20272;-66
2023/08/08 07:46:32;;;;;;;1.77;1.60;;;15.60;99.90;;;-141.84;67.30;20643.13;5046516;28;20408;-65
2023/08/08 07:49:04;;;;;;;2.50;1.65;;;15.40;99.90;;;-141.84;67.76;20578.09;5064236;28;20291;-68
2023/08/08 07:51:32;;;;;;;3.05;1.85;;;15.30;99.90;;;-141.84;67.16;20655.31;5063556;28;20236;-66
2023/08/08 07:54:01;;;;;;;2.33;1.77;;;;;;;-141.84;66.74;20665.50;5062974;28;20260;-66
2023/08/08 07:56:30;;;;;;;2.83;2.03;;;15.30;99.90;;;-141.84;67.31;20706.16;5054888;28;20244;-66
2023/08/08 07:58:59;;;;;;;3.33;1.85;;;15.40;99.90;;;-141.84;67.65;20704.13;5073762;28;20288;-67
2023/08/08 08:01:28;;;;;;;3.20;1.92;;;15.60;99.90;;;-141.84;67.76;20679.72;5083213;28;20223;-67
2023/08/08 08:03:56;;;;;;;2.05;1.83;;;15.60;99.90;;;-141.84;67.54;20681.75;5083724;28;20242;-65
2023/08/08 08:06:24;;;;;;;3.22;1.95;;;15.70;99.90;;;-141.84;67.26;20693.94;5074987;28;20231;-66
2023/08/08 08:08:52;;;;;;;2.40;1.90;;;15.70;99.90;;;-141.84;66.35;20740.69;5082139;28;20315;-65
2023/08/08 08:11:20;;;;;;;3.75;1.90;;;15.80;99.90;;;-141.84;66.42;20724.44;5082890;28;20270;-65
2023/08/08 08:13:50;;;;;;;2.45;1.42;;;15.80;99.90;;;-141.84;66.34;20698.00;5082611;28;20709;-65
2023/08/08 08:16:18;;;;;;;1.85;1.70;;;15.70;99.90;;;-141.84;66.19;20726.47;5073718;28;20215;-63
2023/08/08 08:18:47;;;;;;;3.90;1.98;;;15.70;99.90;;;-141.84;65.77;20732.56;5081524;28;20207;-66
2023/08/08 08:21:17;;;;;;;2.20;2.00;;;15.80;99.90;;;-141.84;65.63;20712.25;5062050;28;20235;-65
2023/08/08 08:23:46;;;;;;;2.80;1.70;;;15.80;99.90;;;-141.84;65.97;20726.47;5060610;28;20347;-65
2023/08/08 08:26:15;;;;;;;3.17;1.80;;;15.90;99.90;;;-141.84;65.93;20720.38;5049566;28;20283;-67
2023/08/08 08:28:43;;;;;;;2.80;1.90;;;15.60;99.90;;;-141.84;66.17;20710.22;5052672;28;20264;-65
2023/08/08 08:31:13;;;;;;;2.47;1.90;;;15.80;99.90;;;-141.84;66.34;20669.56;5066781;28;20200;-65
2023/08/08 08:33:41;;;;;;;3.03;1.92;;;15.70;99.90;;;-141.84;66.84;20685.81;5062333;28;20291;-65
2023/08/08 08:36:09;;;;;;;2.42;1.65;;;15.60;99.90;;;-141.84;67.12;20702.09;5061591;28;20251;-65
2023/08/08 08:38:41;;;;;;;2.65;1.70;;;15.60;99.90;;;-141.84;66.56;20639.06;5056181;28;20715;-66
2023/08/08 08:41:13;;;;;;;2.05;1.70;;;15.60;99.90;;;-141.84;67.21;20681.75;5061801;28;20229;-66
2023/08/08 08:43:42;;;;;;;1.85;1.70;;;15.60;99.90;;;-141.84;66.94;20683.78;5062509;28;20302;-66
2023/08/08 08:46:19;;;;;;;3.80;1.60;;;15.60;99.90;;;-141.84;67.51;20691.91;5061812;28;20197;-66
2023/08/08 08:48:50;;;;;;;1.63;1.52;;;15.70;99.90;;;-141.84;67.03;20687.84;5062826;28;20208;-66
2023/08/08 08:51:19;;;;;;;2.38;2.00;;;15.80;99.90;;;-141.84;68.12;20675.66;5059137;28;20826;-67
2023/08/08 08:53:47;;;;;;;3.40;2.10;;;15.80;99.90;;;-141.84;70.56;20606.53;5041380;28;20229;-66
2023/08/08 08:56:16;;;;;;;4.57;2.35;;;;;;;-141.84;71.85;20602.47;5040172;28;20243;-65
2023/08/08 08:58:45;;;;;;;3.47;2.15;;;15.50;99.90;;;-141.84;72.02;20571.97;5059818;28;20234;-68
2023/08/08 09:01:17;;;;;;;2.35;2.10;;;15.40;99.90;;;-141.84;72.85;20529.28;5082384;28;20284;-66
2023/08/08 09:03:46;;;;;;;2.45;2.25;;;15.30;99.90;;;-141.84;72.85;20543.53;5083431;28;20615;-65
2023/08/08 09:06:16;;;;;;;2.75;1.98;;;15.30;99.90;;;-141.84;72.52;20545.56;5082142;28;20722;-66
2023/08/08 09:08:46;;;;;;;2.58;2.00;;;15.40;99.90;;;-141.84;72.73;20555.72;5081667;28;20242;-65
2023/08/08 09:11:15;;;;;;;3.25;2.28;;;15.40;99.90;;;-141.84;72.17;20580.13;5081144;28;20520;-66
2023/08/08 09:13:43;;;;;;;6.25;2.30;;;15.40;99.90;;;-141.84;73.89;20545.56;5081680;28;20259;-65
2023/08/08 09:16:12;;;;;;;2.85;2.00;;;15.40;99.90;;;-141.84;72.96;20592.31;5081460;28;20204;-65
2023/08/08 09:18:42;;;;;;;3.28;2.22;;;15.40;99.90;;;-141.84;72.94;20590.28;5075163;28;20302;-66
2023/08/08 09:21:10;;;;;;;2.90;2.40;;;15.50;99.90;;;-141.84;71.86;20645.16;5064155;28;20228;-65
2023/08/08 09:23:39;;;;;;;2.97;2.15;;;15.60;99.90;;;-141.84;71.27;20643.13;5067717;28;21029;-65
2023/08/08 09:26:08;;;;;;;2.30;2.10;;;15.70;99.90;;;-141.84;71.25;20606.53;5056826;28;20286;-64
2023/08/08 09:28:36;;;;;;;2.63;2.05;;;15.70;99.90;;;-141.84;71.46;20637.03;5052798;28;20228;-65
2023/08/08 09:31:04;;;;;;;3.30;2.00;;;15.70;99.90;;;-141.84;70.53;20659.38;5067197;28;20201;-65
2023/08/08 09:33:33;;;;;;;2.15;1.92;;;15.90;99.90;;;-141.84;70.76;20720.38;5068483;28;20204;-66
2023/08/08 09:36:02;;;;;;;2.30;2.10;;;16.00;99.90;;;-141.84;68.72;20769.16;5067750;28;20637;-65
2023/08/08 09:38:30;;;;;;;3.03;2.03;;;16.30;99.90;;;-141.84;67.73;20858.59;5059541;28;20304;-66
2023/08/08 09:40:59;;;;;;;2.75;2.35;;;16.60;99.90;;;-141.84;65.67;20954.16;5067782;28;20228;-65
2023/08/08 09:43:28;;;;;;;2.92;2.00;;;16.90;99.90;;;-141.84;65.23;21017.19;5067687;28;20311;-67
2023/08/08 09:45:57;;;;;;;4.00;2.10;;;17.20;99.90;;;-141.84;65.64;21053.78;5066990;28;20746;-66
2023/08/08 09:48:32;;;;;;;5.35;2.15;;;17.40;99.90;;;-141.84;61.93;21151.34;5060373;28;20224;-65
2023/08/08 09:51:02;;;;;;;2.58;2.35;;;17.70;99.90;;;-141.84;63.04;21204.22;5067891;28;20243;-65
2023/08/08 09:53:31;;;;;;;1.95;1.75;;;18.00;99.90;;;-141.84;60.30;21281.47;5067886;28;20263;-66
2023/08/08 09:56:01;;;;;;;2.28;1.90;;;18.20;99.90;;;-141.84;60.11;21257.09;5067467;28;20240;-66
2023/08/08 09:58:29;;;;;;;2.00;1.73;;;18.40;99.90;;;-141.84;60.48;21246.91;5066126;28;20223;-65
2023/08/08 10:00:58;;;;;;;2.75;1.70;;;18.40;99.90;;;-141.84;61.05;21248.94;5088146;28;20277;-65
2023/08/08 10:03:27;;;;;;;2.40;1.88;;;18.30;99.90;;;-141.84;59.93;21277.41;5087897;28;20255;-65
2023/08/08 10:05:56;;;;;;;2.20;1.77;;;18.40;99.90;;;-141.84;60.37;21242.84;5087621;28;20259;-65
2023/08/08 10:08:25;;;;;;;2.75;1.70;;;18.30;99.90;;;-141.84;60.02;21244.88;5079375;28;20255;-67
2023/08/08 10:10:56;;;;;;;2.85;1.58;;;18.30;99.90;;;-141.84;58.03;21332.31;5088134;28;20232;-66
2023/08/08 10:13:27;;;;;;;1.88;1.70;;;18.60;99.90;;;-141.84;56.68;21375.00;5088209;28;20227;-66
2023/08/08 10:15:56;;;;;;;1.77;1.50;;;18.70;99.90;;;-141.84;56.14;21454.28;5081126;28;20297;-65